sensor_id;sensor_type;location;lat;lon;timestamp;P1;durP1;ratioP1;P2;durP2;ratioP2
9506;SDS011;4791;47.528;9.372;2023-03-24T00:07:53;5.67;;;4.70;;
9506;SDS011;4791;47.528;9.372;2023-03-24T00:22:53;7.65;;;6.10;;
9506;SDS011;4791;47.528;9.372;2023-03-24T00:38:00;7.13;;;5.70;;
9506;SDS011;4791;47.528;9.372;2023-03-24T00:53:00;5.90;;;4.60;;
9506;SDS011;4791;47.528;9.372;2023-03-24T01:08:01;5.33;;;4.70;;
9506;SDS011;4791;47.528;9.372;2023-03-24T01:23:03;6.93;;;4.73;;
9506;SDS011;4791;47.528;9.372;2023-03-24T01:38:07;5.37;;;4.33;;
9506;SDS011;4791;47.528;9.372;2023-03-24T01:53:09;5.80;;;4.13;;
9506;SDS011;4791;47.528;9.372;2023-03-24T02:53:44;5.75;;;4.80;;
9506;SDS011;4791;47.528;9.372;2023-03-24T03:09:08;7.50;;;5.43;;
9506;SDS011;4791;47.528;9.372;2023-03-24T03:24:18;6.30;;;5.70;;
9506;SDS011;4791;47.528;9.372;2023-03-24T03:39:29;8.95;;;5.90;;
9506;SDS011;4791;47.528;9.372;2023-03-24T03:54:34;6.80;;;6.10;;
9506;SDS011;4791;47.528;9.372;2023-03-24T04:09:38;8.47;;;6.20;;
9506;SDS011;4791;47.528;9.372;2023-03-24T04:25:10;9.20;;;6.37;;
9506;SDS011;4791;47.528;9.372;2023-03-24T04:40:37;12.57;;;6.70;;
9506;SDS011;4791;47.528;9.372;2023-03-24T05:11:06;7.93;;;5.90;;
9506;SDS011;4791;47.528;9.372;2023-03-24T05:26:07;8.40;;;6.07;;
9506;SDS011;4791;47.528;9.372;2023-03-24T05:41:07;8.95;;;7.22;;
9506;SDS011;4791;47.528;9.372;2023-03-24T05:56:08;9.30;;;6.60;;
9506;SDS011;4791;47.528;9.372;2023-03-24T06:11:11;8.87;;;6.77;;
9506;SDS011;4791;47.528;9.372;2023-03-24T06:26:12;7.93;;;6.15;;
9506;SDS011;4791;47.528;9.372;2023-03-24T06:41:13;5.30;;;4.87;;
9506;SDS011;4791;47.528;9.372;2023-03-24T06:56:13;9.77;;;5.20;;
9506;SDS011;4791;47.528;9.372;2023-03-24T07:11:17;5.37;;;4.80;;
9506;SDS011;4791;47.528;9.372;2023-03-24T07:26:17;6.90;;;5.27;;
9506;SDS011;4791;47.528;9.372;2023-03-24T07:41:18;6.32;;;4.97;;
9506;SDS011;4791;47.528;9.372;2023-03-24T07:56:18;4.53;;;3.97;;
9506;SDS011;4791;47.528;9.372;2023-03-24T08:11:18;5.37;;;3.63;;
9506;SDS011;4791;47.528;9.372;2023-03-24T08:26:19;5.32;;;4.05;;
9506;SDS011;4791;47.528;9.372;2023-03-24T08:41:19;5.97;;;4.47;;
9506;SDS011;4791;47.528;9.372;2023-03-24T08:56:21;7.13;;;4.40;;
9506;SDS011;4791;47.528;9.372;2023-03-24T09:11:22;4.67;;;4.00;;
9506;SDS011;4791;47.528;9.372;2023-03-24T09:26:23;4.50;;;3.72;;
9506;SDS011;4791;47.528;9.372;2023-03-24T09:41:27;4.97;;;3.47;;
9506;SDS011;4791;47.528;9.372;2023-03-24T09:56:29;8.83;;;5.40;;
9506;SDS011;4791;47.528;9.372;2023-03-24T10:11:41;6.70;;;5.07;;
9506;SDS011;4791;47.528;9.372;2023-03-24T10:27:05;5.97;;;5.17;;
9506;SDS011;4791;47.528;9.372;2023-03-24T10:42:13;6.90;;;5.77;;
9506;SDS011;4791;47.528;9.372;2023-03-24T10:57:16;6.70;;;5.63;;
9506;SDS011;4791;47.528;9.372;2023-03-24T11:12:27;7.10;;;5.97;;
9506;SDS011;4791;47.528;9.372;2023-03-24T11:27:28;8.10;;;7.30;;
9506;SDS011;4791;47.528;9.372;2023-03-24T11:42:30;8.00;;;6.60;;
9506;SDS011;4791;47.528;9.372;2023-03-24T13:14:09;3.00;;;1.83;;
9506;SDS011;4791;47.528;9.372;2023-03-24T13:29:15;2.80;;;1.83;;
9506;SDS011;4791;47.528;9.372;2023-03-24T13:44:23;2.50;;;1.50;;
9506;SDS011;4791;47.528;9.372;2023-03-24T13:59:38;2.80;;;1.77;;
9506;SDS011;4791;47.528;9.372;2023-03-24T14:30:17;3.43;;;1.80;;
9506;SDS011;4791;47.528;9.372;2023-03-24T15:00:34;2.37;;;1.23;;
9506;SDS011;4791;47.528;9.372;2023-03-24T15:15:45;2.20;;;1.00;;
9506;SDS011;4791;47.528;9.372;2023-03-24T15:30:47;2.27;;;1.17;;
9506;SDS011;4791;47.528;9.372;2023-03-24T15:45:51;1.57;;;1.00;;
9506;SDS011;4791;47.528;9.372;2023-03-24T16:00:56;3.67;;;1.40;;
9506;SDS011;4791;47.528;9.372;2023-03-24T16:31:22;5.63;;;1.17;;
9506;SDS011;4791;47.528;9.372;2023-03-24T17:01:28;2.30;;;0.90;;
9506;SDS011;4791;47.528;9.372;2023-03-24T17:16:33;1.77;;;0.90;;
9506;SDS011;4791;47.528;9.372;2023-03-24T17:31:35;3.50;;;1.30;;
9506;SDS011;4791;47.528;9.372;2023-03-24T17:46:36;2.42;;;1.23;;
9506;SDS011;4791;47.528;9.372;2023-03-24T18:01:36;4.97;;;1.45;;
9506;SDS011;4791;47.528;9.372;2023-03-24T18:16:38;2.28;;;1.20;;
9506;SDS011;4791;47.528;9.372;2023-03-24T18:31:39;2.50;;;1.37;;
9506;SDS011;4791;47.528;9.372;2023-03-24T18:46:39;3.10;;;1.30;;
9506;SDS011;4791;47.528;9.372;2023-03-24T19:01:39;1.53;;;0.90;;
9506;SDS011;4791;47.528;9.372;2023-03-24T19:16:40;1.95;;;1.08;;
9506;SDS011;4791;47.528;9.372;2023-03-24T19:31:40;1.20;;;0.68;;
9506;SDS011;4791;47.528;9.372;2023-03-24T19:46:41;1.23;;;0.80;;
9506;SDS011;4791;47.528;9.372;2023-03-24T20:01:41;2.00;;;1.20;;
9506;SDS011;4791;47.528;9.372;2023-03-24T20:16:41;2.63;;;1.30;;
9506;SDS011;4791;47.528;9.372;2023-03-24T20:31:42;2.33;;;1.60;;
9506;SDS011;4791;47.528;9.372;2023-03-24T20:46:43;2.30;;;1.10;;
9506;SDS011;4791;47.528;9.372;2023-03-24T21:01:44;1.52;;;1.00;;
9506;SDS011;4791;47.528;9.372;2023-03-24T21:16:47;3.60;;;1.27;;
9506;SDS011;4791;47.528;9.372;2023-03-24T21:31:48;3.63;;;2.23;;
9506;SDS011;4791;47.528;9.372;2023-03-24T21:46:48;5.60;;;3.97;;
9506;SDS011;4791;47.528;9.372;2023-03-24T22:01:49;2.20;;;1.10;;
9506;SDS011;4791;47.528;9.372;2023-03-24T22:16:51;2.30;;;1.10;;
9506;SDS011;4791;47.528;9.372;2023-03-24T22:31:51;3.17;;;1.10;;
9506;SDS011;4791;47.528;9.372;2023-03-24T22:46:52;2.08;;;0.95;;
9506;SDS011;4791;47.528;9.372;2023-03-24T23:01:58;2.53;;;1.20;;
9506;SDS011;4791;47.528;9.372;2023-03-24T23:16:58;4.32;;;1.30;;
9506;SDS011;4791;47.528;9.372;2023-03-24T23:31:58;4.60;;;1.30;;
9506;SDS011;4791;47.528;9.372;2023-03-24T23:46:59;3.63;;;1.77;;
